Terminal Aerodrome Forecast
Issued by NWS Tallahassee, FL

Home | Current Version | Previous Version | Text Only | Print | Product List | Glossary On
Versions: 1 2 3 4 5 6 7 8 9 10 11 12 13 14
000
FTUS42 KTAE 102300
TAFTLH
TAF
KTLH 102324Z 1100/1124 23007KT P6SM SCT040 SCT200
     FM110400 00000KT P6SM FEW200
     FM111400 21006KT P6SM SCT030 SCT200
     FM111800 21008KT P6SM VCTS SCT040CB BKN150=

USA.gov is the U.S. government's official web portal to all federal, state and local government web resources and services.